ePrivacy and GPDR Cookie Consent by Cookie Consent
EmailTwitter


Surface observations / United States / KJFK (74486)

Regions: Quebec | Canada | USA | Europe | France | UK | Elsewhere
Station
Display
Info & Location for KJFK (74486) | Help decoding METAR

Weather Conditions observed on 2022/01/17 at 20:51 UTC at NEW YORK/JF KENN, NY (KJFK)

Sky conditions: overcast.

Temperature: 2.8 Celsius.

Dewpoint: -2.2 Celsius.

Relative Humidity: 70%

Windchill Factor -4.

Windchill Factor (Gusts) -5.

Winds: Southwest at 44 km/h or 24 knots.

Gust: 57 km/h or 31 knots.

Mean Sea level Pressure: 98.80 kilopascals.

Altimeter Setting (QNH): 98.81 kilopascals or 29.18 inches of mercury.

Horizontal visibility: 10.00 statute miles or 16.00 kilometers.

Height of the Ceiling: 975 metres ( 3200 feet ).

Coded METAR:

KJFK 172051Z 24024G31KT 10SM OVC032 03/M02 A2918 RMK AO2 PK WND 24033/2027

SLP880 T00281022 51015=